Bluffton, IN (46714)

5:16 PM EDT on May 27, 2017 (GMT -0400)
Rigby Timbers | | Change Station
Active Advisory: Flood Warning Active Notice: Public Information Statement

Elev 856 ft 40.71 °N, 85.17 °W | Updated 10 seconds ago

Overcast
Overcast
77.1 °F
Feels Like 79 °F
N
8.0
Wind Variable Wind from West

Today
High -- | Low -- °F
--% Chance of Precip.
Yesterday
High -- | Low -- °F
Precip. -- in
Pressure 29.88 in
Visibility 10.0 miles
Clouds Scattered Clouds 2200 ft
Mostly Cloudy 2800 ft
Overcast 3900 ft
Heat Index 79 °F
Dew Point 67 °F
Humidity 71%
Rainfall 0.09 in
Snow Depth Not available.
6:14 AM 9:02 PM
Waxing Crescent, 6% visible
METAR KFWA 271954Z 00000KT 10SM SCT022 BKN028 OVC039 23/17 A2988 RMK AO2 SLP116 T02280172
Pressure 29.88 in
Visibility 10.0 miles
Clouds Scattered Clouds 2200 ft
Mostly Cloudy 2800 ft
Overcast 3900 ft
Heat Index 79 °F
Dew Point 67 °F
Humidity 71%
Rainfall 0.09 in
Snow Depth Not available.
6:14 AM 9:02 PM
Waxing Crescent, 6% visible
METAR KFWA 271954Z 00000KT 10SM SCT022 BKN028 OVC039 23/17 A2988 RMK AO2 SLP116 T02280172

Get Your Daily Forecast Email!

Thanks for signing up!

Be on the lookout for a verification email in your inbox.

You'll start receiving severe weather alerts in your inbox..

×

10-Day Weather Forecast

Almanac

Astronomy

May. 27, 2017 Rise Set
Actual Time
Civil Twilight
Nautical Twilight
Astronomical Twilight
Moon
Length of Visible Light
Length of Day
Tomorrow will be .
, % of the Moon is Illuminated

Today's Extremes

State Highs State Lows

Community

WunderPhotos

Category 6

Welcome to Category 6. This is the collective home for Weather Underground's featured writeups by Dr. Jeff Masters (right), Bob Henson (left), Chris Burt, and other regular contributors.

Nearby

Air Quality

  Air Quality AQ Index Pollutant
Not available.

Snow Depth

Station Depth Elevation

Earthquake Activity

City Distance Mag. Time & Date
Minimum magnitude displayed is 2.5.

Coastal Water Temperatures

Place Temperature

Stations

Nearby Weather Stations

Station Location Temp. Windchill Dew Point Humidity Wind Precip. Elev Updated Type
                   

Watches & Warnings

Flood Warning
Issued: 3:30 PM EDT May. 27, 2017 – National Weather Service

The Flood Warning continues for
the Wabash River near Bluffton
* until late Sunday night.
* At 3 PM Saturday the stage was 10.4 feet and rising.
* Minor flooding is occurring and minor flooding is forecast.
* Flood stage is 10.0 feet.
* Forecast... the river will fall below the 10.0 foot flood stage
around 3 am Sunday may 28.
* At 10.0 feet... the river is at flood stage. Flooding of
agricultural land begins.


Lat... Lon 4085 8552 4088 8541 4078 8512 4072 8508
      4069 8511